Time;durP1;ratioP1;P1;durP2;ratioP2;P2;SDS_P1;SDS_P2;PMS_P1;PMS_P2;Temp;Humidity;BMP_temperature;BMP_pressure;BME280_temperature;BME280_humidity;BME280_pressure;Samples;Min_cycle;Max_cycle;Signal;HPM_P1;HPM_P2
2021/11/17 02:27:51;;;;;;;;;;;11.40;99.90;;;;;;5053474;28;19979;-55
2021/11/17 02:30:18;;;;;;;;;;;;;;;;;;5058164;28;19931;-55
2021/11/17 02:32:46;;;;;;;;;;;;;;;;;;5070539;28;19936;-54
2021/11/17 02:35:34;;;;;;;;;;;11.20;99.90;;;;;;5060690;28;19968;-53
2021/11/17 02:38:01;;;;;;;;;;;;;;;;;;5065102;28;19924;-55
2021/11/17 02:40:47;;;;;;;;;;;10.80;99.90;;;;;;5072547;28;19929;-54
2021/11/17 02:43:14;;;;;;;;;;;;;;;;;;5071073;28;19924;-54
2021/11/17 02:45:48;;;;;;;;;;;10.70;99.90;;;;;;5066226;28;19932;-55
2021/11/17 02:48:24;;;;;;;;;;;10.90;99.90;;;;;;5069526;28;19932;-53
2021/11/17 02:50:58;;;;;;;;;;;10.90;99.90;;;;;;5072558;28;20334;-54
2021/11/17 02:53:31;;;;;;;;;;;11.10;99.90;;;;;;5062347;28;19932;-54
2021/11/17 02:56:08;;;;;;;;;;;11.10;99.90;;;;;;5061478;28;19928;-55
2021/11/17 02:58:49;;;;;;;;;;;11.30;99.90;;;;;;5072180;28;20402;-54
2021/11/17 03:01:33;;;;;;;;;;;11.20;99.90;;;;;;5077206;22;19947;-52
2021/11/17 03:04:10;;;;;;;;;;;11.00;99.90;;;;;;5072691;28;19925;-51
2021/11/17 03:06:43;;;;;;;;;;;11.00;99.90;;;;;;5090901;28;19924;-51
2021/11/17 03:09:16;;;;;;;;;;;10.90;99.90;;;;;;5072023;28;19932;-51
2021/11/17 03:11:53;;;;;;;;;;;11.00;99.90;;;;;;5071956;28;19928;-50
2021/11/17 03:14:27;;;;;;;;;;;11.00;99.90;;;;;;5071464;28;19925;-51
2021/11/17 03:17:03;;;;;;;;;;;10.90;99.90;;;;;;5071877;28;19925;-51
2021/11/17 03:19:38;;;;;;;;;;;11.00;99.90;;;;;;5071967;28;19947;-51
2021/11/17 03:22:11;;;;;;;;;;;11.10;99.90;;;;;;5071080;28;20407;-53
2021/11/17 03:24:44;;;;;;;;;;;11.20;99.90;;;;;;5071459;28;20398;-51
2021/11/17 03:27:17;;;;;;;;;;;11.20;99.90;;;;;;5070527;28;20382;-51
2021/11/17 03:29:51;;;;;;;;;;;10.50;99.90;;;;;;5071160;28;20302;-51
2021/11/17 03:32:35;;;;;;;;;;;10.90;99.90;;;;;;5072048;28;19925;-51
2021/11/17 03:35:10;;;;;;;;;;;10.90;99.90;;;;;;5065436;28;19928;-52
2021/11/17 03:37:48;;;;;;;;;;;11.10;99.90;;;;;;5071925;28;19931;-51
2021/11/17 03:40:33;;;;;;;;;;;11.20;99.90;;;;;;5071837;28;19929;-51
2021/11/17 03:43:17;;;;;;;;;;;11.20;99.90;;;;;;5067700;28;19924;-51
2021/11/17 03:45:55;;;;;;;;;;;10.90;99.90;;;;;;5058781;28;19940;-51
2021/11/17 03:48:33;;;;;;;;;;;11.10;99.90;;;;;;5072101;28;19932;-51
2021/11/17 03:51:00;;;;;;;;;;;;;;;;;;5071370;28;19925;-52
2021/11/17 03:53:36;;;;;;;;;;;11.40;99.90;;;;;;5071812;28;19924;-51
2021/11/17 03:56:03;;;;;;;;;;;;;;;;;;5071484;28;19925;-52
2021/11/17 03:58:36;;;;;;;;;;;11.30;99.90;;;;;;5071034;28;19924;-51
2021/11/17 04:01:12;;;;;;;;;;;11.30;99.90;;;;;;5069572;28;20417;-53
2021/11/17 04:03:52;;;;;;;;;;;10.00;99.90;;;;;;5071624;28;20483;-51
2021/11/17 04:06:26;;;;;;;;;;;9.90;99.90;;;;;;5071929;28;19925;-51
2021/11/17 04:08:58;;;;;;;;;;;10.00;99.90;;;;;;5070892;28;19924;-51
2021/11/17 04:11:34;;;;;;;;;;;9.80;99.90;;;;;;5071379;28;20379;-51
2021/11/17 04:14:07;;;;;;;;;;;10.40;99.90;;;;;;5071417;28;20306;-51
2021/11/17 04:16:34;;;;;;;;;;;;;;;;;;5071300;28;19936;-51
2021/11/17 04:19:09;;;;;;;;;;;10.60;99.90;;;;;;5071329;28;19924;-51
2021/11/17 04:21:36;;;;;;;;;;;;;;;;;;5071135;28;19928;-52
2021/11/17 04:24:16;;;;;;;;;;;10.90;99.90;;;;;;5071751;28;19925;-51
2021/11/17 04:26:49;;;;;;;;;;;11.00;99.90;;;;;;5075531;28;19931;-52
2021/11/17 04:29:23;;;;;;;;;;;11.10;99.90;;;;;;5075848;28;19935;-51
2021/11/17 04:31:50;;;;;;;;;;;;;;;;;;5074630;28;19932;-52
2021/11/17 04:34:28;;;;;;;;;;;9.90;99.90;;;;;;5075571;28;19931;-51
2021/11/17 04:37:01;;;;;;;;;;;8.30;99.90;;;;;;5075546;28;19924;-51
2021/11/17 04:39:28;;;;;;;;;;;;;;;;;;5075376;28;19951;-52
2021/11/17 04:41:55;;;;;;;;;;;;;;;;;;5074959;28;20314;-52
2021/11/17 04:44:28;;;;;;;;;;;9.20;99.90;;;;;;5075190;28;20434;-52
2021/11/17 04:46:55;;;;;;;;;;;;;;;;;;5075591;28;19925;-51
2021/11/17 04:49:30;;;;;;;;;;;8.70;99.90;;;;;;5073901;28;19925;-51
2021/11/17 04:52:08;;;;;;;;;;;8.10;99.90;;;;;;5054925;28;19925;-51
2021/11/17 04:54:35;;;;;;;;;;;;;;;;;;5058080;28;20383;-51
2021/11/17 04:57:10;;;;;;;;;;;9.20;99.90;;;;;;5075141;28;19931;-51
2021/11/17 04:59:56;;;;;;;;;;;9.10;99.90;;;;;;5075105;28;19947;-52
2021/11/17 05:02:29;;;;;;;;;;;8.30;99.90;;;;;;5074853;28;19924;-51
2021/11/17 05:05:04;;;;;;;;;;;8.20;99.90;;;;;;5074956;28;19928;-51
2021/11/17 05:07:37;;;;;;;;;;;8.40;99.90;;;;;;5075336;28;20286;-51
2021/11/17 05:10:09;;;;;;;;;;;8.20;99.90;;;;;;5074670;28;19924;-51
2021/11/17 05:12:42;;;;;;;;;;;8.10;99.90;;;;;;5074810;28;19938;-51
2021/11/17 05:15:14;;;;;;;;;;;7.90;99.90;;;;;;5074569;28;20512;-52
2021/11/17 05:17:47;;;;;;;;;;;8.70;99.90;;;;;;5074914;28;19925;-50
2021/11/17 05:20:21;;;;;;;;;;;8.50;99.90;;;;;;5073950;28;19932;-49
2021/11/17 05:22:54;;;;;;;;;;;9.30;99.90;;;;;;5074744;28;19924;-49
2021/11/17 05:25:21;;;;;;;;;;;;;;;;;;5074663;28;20398;-51
2021/11/17 05:27:54;;;;;;;;;;;9.80;99.90;;;;;;5074875;28;20404;-51
2021/11/17 05:30:21;;;;;;;;;;;;;;;;;;5074177;28;19924;-52
2021/11/17 05:33:00;;;;;;;;;;;10.00;99.90;;;;;;5074686;28;19931;-49
2021/11/17 05:35:27;;;;;;;;;;;;;;;;;;5073590;28;19940;-52
2021/11/17 05:38:00;;;;;;;;;;;10.70;99.90;;;;;;5073850;28;19925;-51
2021/11/17 05:40:27;;;;;;;;;;;;;;;;;;5073958;28;19925;-53
2021/11/17 05:43:00;;;;;;;;;;;10.80;99.90;;;;;;5074215;28;19925;-52
2021/11/17 05:45:45;;;;;;;;;;;10.90;99.90;;;;;;5074339;28;19928;-51
2021/11/17 05:48:12;;;;;;;;;;;;;;;;;;5073803;28;20027;-52
2021/11/17 05:50:45;;;;;;;;;;;10.80;99.90;;;;;;5073497;28;19932;-51
2021/11/17 05:53:19;;;;;;;;;;;11.00;99.90;;;;;;5074264;28;19925;-51
2021/11/17 05:55:52;;;;;;;;;;;11.00;99.90;;;;;;5074148;28;19925;-51
2021/11/17 05:58:25;;;;;;;;;;;11.10;99.90;;;;;;5074075;28;19928;-51
2021/11/17 06:01:01;;;;;;;;;;;11.30;99.90;;;;;;5072929;28;19928;-52
2021/11/17 06:03:37;;;;;;;;;;;11.30;99.90;;;;;;5074139;28;19924;-51
2021/11/17 06:06:04;;;;;;;;;;;;;;;;;;5074082;28;19944;-52
2021/11/17 06:08:31;;;;;;;;;;;11.00;99.90;;;;;;5073513;28;19943;-51
2021/11/17 06:11:00;;;;;;;;;;;9.90;99.90;;;;;;5073040;28;19925;-51
2021/11/17 06:13:27;;;;;;;;;;;9.30;99.90;;;;;;5073630;28;19925;-52
2021/11/17 06:15:54;;;;;;;;;;;;;;;;;;5073130;28;20302;-52
2021/11/17 06:18:23;;;;;;;;;;;9.60;99.90;;;;;;5073562;28;20294;-52
2021/11/17 06:20:50;;;;;;;;;;;9.40;99.90;;;;;;5073155;28;19970;-52
2021/11/17 06:23:19;;;;;;;;;;;9.00;99.90;;;;;;5073379;28;20398;-51
2021/11/17 06:25:46;;;;;;;;;;;;;;;;;;5072359;28;19931;-52
2021/11/17 06:28:18;;;;;;;;;;;9.70;99.90;;;;;;5073319;28;20306;-51
2021/11/17 06:30:45;;;;;;;;;;;10.00;99.90;;;;;;5072522;28;19932;-52
2021/11/17 06:33:12;;;;;;;;;;;9.70;99.90;;;;;;5073406;28;19924;-51
2021/11/17 06:35:40;;;;;;;;;;;;;;;;;;5072741;28;19924;-52
2021/11/17 06:38:08;;;;;;;;;;;9.70;99.90;;;;;;5071697;28;20500;-51
2021/11/17 06:40:36;;;;;;;;;;;;;;;;;;5072552;28;19925;-52
2021/11/17 06:43:03;;;;;;;;;;;8.70;99.90;;;;;;5075476;28;19924;-52
2021/11/17 06:45:31;;;;;;;;;;;;;;;;;;5071978;28;20386;-53
2021/11/17 06:47:59;;;;;;;;;;;9.80;99.90;;;;;;5071950;28;19929;-51
2021/11/17 06:50:26;;;;;;;;;;;;;;;;;;5072462;28;19964;-51
2021/11/17 06:52:53;;;;;;;;;;;10.10;99.90;;;;;;5091151;28;19928;-51
2021/11/17 06:55:20;;;;;;;;;;;;;;;;;;5093100;28;20287;-51
2021/11/17 06:57:47;;;;;;;;;;;;;;;;;;5079943;28;19985;-51
2021/11/17 07:00:16;;;;;;;;;;;10.20;99.90;;;;;;5071845;28;20464;-52
2021/11/17 07:02:43;;;;;;;;;;;9.60;99.90;;;;;;5072490;28;19925;-51
2021/11/17 07:05:11;;;;;;;;;;;9.30;99.90;;;;;;5072335;28;19930;-52
2021/11/17 07:07:39;;;;;;;;;;;9.60;99.90;;;;;;5072011;28;20382;-51
2021/11/17 07:10:06;;;;;;;;;;;9.10;99.90;;;;;;5072339;28;20413;-52
2021/11/17 07:12:33;;;;;;;;;;;;;;;;;;5072358;28;19924;-52
2021/11/17 07:15:02;;;;;;;;;;;8.20;99.90;;;;;;5071295;28;19924;-51
2021/11/17 07:17:29;;;;;;;;;;;8.00;99.90;;;;;;5072253;28;20402;-51
2021/11/17 07:19:56;;;;;;;;;;;;;;;;;;5071767;28;19924;-51
2021/11/17 07:22:24;;;;;;;;;;;8.00;99.90;;;;;;5070140;28;19925;-51
2021/11/17 07:24:51;;;;;;;;;;;;;;;;;;5072405;28;20283;-53
2021/11/17 07:27:22;;;;;;;;;;;8.80;99.90;;;;;;5072263;28;19928;-51
2021/11/17 07:29:49;;;;;;;;;;;8.80;99.90;;;;;;5072381;28;19925;-51
2021/11/17 07:32:16;;;;;;;;;;;9.40;99.90;;;;;;5071616;28;20348;-51
2021/11/17 07:34:43;;;;;;;;;;;9.70;99.90;;;;;;5072256;28;20382;-51
2021/11/17 07:37:10;;;;;;;;;;;10.30;99.90;;;;;;5072084;28;20302;-52
2021/11/17 07:39:38;;;;;;;;;;;10.40;99.90;;;;;;5072315;28;19928;-51
2021/11/17 07:42:06;;;;;;;;;;;9.90;99.90;;;;;;5071768;28;19933;-51
2021/11/17 07:44:33;;;;;;;;;;;9.80;99.90;;;;;;5072197;28;19925;-51
2021/11/17 07:46:59;;;;;;;;;;;9.60;99.90;;;;;;5072025;28;19978;-52
2021/11/17 07:49:27;;;;;;;;;;;9.50;99.90;;;;;;5072004;28;20014;-51
2021/11/17 07:51:55;;;;;;;;;;;9.40;99.90;;;;;;5071711;28;19994;-51
2021/11/17 07:54:23;;;;;;;;;;;9.10;99.90;;;;;;5071262;28;19932;-51
2021/11/17 07:56:52;;;;;;;;;;;9.20;99.90;;;;;;5067414;28;19985;-52
2021/11/17 07:59:21;;;;;;;;;;;8.70;99.90;;;;;;5069500;28;19931;-50
2021/11/17 08:01:49;;;;;;;;;;;;;;;;;;5052357;28;19928;-49
2021/11/17 08:04:17;;;;;;;;;;;7.40;99.90;;;;;;5071159;28;19925;-49
2021/11/17 08:06:44;;;;;;;;;;;;;;;;;;5071366;28;19924;-50
2021/11/17 08:09:12;;;;;;;;;;;8.20;99.90;;;;;;5067088;28;19979;-49
2021/11/17 08:11:39;;;;;;;;;;;;;;;;;;5055609;28;19981;-49
2021/11/17 08:14:08;;;;;;;;;;;9.00;99.90;;;;;;5071816;28;19928;-50
2021/11/17 08:16:35;;;;;;;;;;;8.90;99.90;;;;;;5071187;28;19924;-50
2021/11/17 08:19:01;;;;;;;;;;;9.40;99.90;;;;;;5071422;28;19924;-50
2021/11/17 08:21:28;;;;;;;;;;;;;;;;;;5070599;28;19954;-50
2021/11/17 08:23:55;;;;;;;;;;;9.20;99.90;;;;;;5071401;28;20459;-50
2021/11/17 08:26:23;;;;;;;;;;;9.00;99.90;;;;;;5067668;28;20614;-50
2021/11/17 08:28:50;;;;;;;;;;;9.90;99.90;;;;;;5071617;28;19928;-49
2021/11/17 08:31:17;;;;;;;;;;;;;;;;;;5071243;28;20292;-49
2021/11/17 08:33:44;;;;;;;;;;;;;;;;;;5071743;28;19946;-50
2021/11/17 08:36:13;;;;;;;;;;;10.40;99.90;;;;;;5071541;28;19924;-50
2021/11/17 08:38:40;;;;;;;;;;;9.90;99.90;;;;;;5071477;28;19978;-49
2021/11/17 08:41:07;;;;;;;;;;;;;;;;;;5070771;28;19925;-50
2021/11/17 08:43:34;;;;;;;;;;;9.50;99.90;;;;;;5064349;28;19978;-50
2021/11/17 08:46:02;;;;;;;;;;;9.10;99.90;;;;;;5051646;28;19978;-50
2021/11/17 08:48:29;;;;;;;;;;;9.30;99.90;;;;;;5065633;28;19955;-51
2021/11/17 08:50:57;;;;;;;;;;;9.50;99.90;;;;;;5071097;28;19993;-50
2021/11/17 08:53:26;;;;;;;;;;;9.70;99.90;;;;;;5070171;28;19978;-50
2021/11/17 08:55:53;;;;;;;;;;;9.70;99.90;;;;;;5069888;28;20405;-50
2021/11/17 08:58:21;;;;;;;;;;;9.90;99.90;;;;;;5072002;28;19932;-52
2021/11/17 09:00:48;;;;;;;;;;;9.60;99.90;;;;;;5061882;28;19931;-52
2021/11/17 09:03:15;;;;;;;;;;;10.20;99.90;;;;;;5074988;28;19928;-51
2021/11/17 09:05:45;;;;;;;;;;;10.80;99.90;;;;;;5071747;28;19925;-51
2021/11/17 09:08:12;;;;;;;;;;;11.00;99.90;;;;;;5070486;28;20393;-51
2021/11/17 09:10:42;;;;;;;;;;;11.10;99.90;;;;;;5069032;28;19928;-52
2021/11/17 09:13:09;;;;;;;;;;;;;;;;;;5073579;28;20015;-51
2021/11/17 09:15:37;;;;;;;;;;;11.60;99.90;;;;;;5073112;28;19925;-51
2021/11/17 09:18:04;;;;;;;;;;;;;;;;;;5106902;22;19924;-52
2021/11/17 09:20:31;;;;;;;;;;;;;;;;;;5109702;28;19943;-52
2021/11/17 09:22:58;;;;;;;;;;;11.90;99.90;;;;;;5111706;27;19928;-53
2021/11/17 09:25:25;;;;;;;;;;;12.10;99.90;;;;;;5110522;27;19924;-53
2021/11/17 09:28:35;;;;;;;;;;;12.50;99.90;;;;;;5119741;27;20408;-52
2021/11/17 09:31:02;;;;;;;;;;;12.40;99.90;;;;;;5096957;28;19924;-52
2021/11/17 09:33:32;;;;;;;;;;;12.10;99.90;;;;;;5091741;28;19924;-52
2021/11/17 09:35:59;;;;;;;;;;;12.10;99.90;;;;;;5108624;28;19924;-52
2021/11/17 09:38:26;;;;;;;;;;;10.90;99.90;;;;;;5108637;28;20386;-52
2021/11/17 09:40:54;;;;;;;;;;;11.10;99.90;;;;;;5109038;28;20386;-53
2021/11/17 09:43:22;;;;;;;;;;;11.40;99.90;;;;;;5108848;28;19928;-52
2021/11/17 09:45:51;;;;;;;;;;;11.50;99.90;;;;;;5109238;28;20405;-52
2021/11/17 09:48:22;;;;;;;;;;;11.70;99.90;;;;;;5109074;28;19928;-52
2021/11/17 09:50:52;;;;;;;;;;;11.80;99.90;;;;;;5108657;28;20015;-52
2021/11/17 09:53:21;;;;;;;;;;;11.50;99.90;;;;;;5108376;28;19935;-52
2021/11/17 09:55:50;;;;;;;;;;;12.10;99.90;;;;;;5108514;28;19974;-51
2021/11/17 09:58:19;;;;;;;;;;;12.10;99.90;;;;;;5107917;28;19924;-51
2021/11/17 10:00:48;;;;;;;;;;;12.10;99.90;;;;;;5099246;28;19932;-52
2021/11/17 10:03:18;;;;;;;;;;;12.00;99.90;;;;;;5108291;28;19932;-52
2021/11/17 10:08:44;;;;;;;;;;;12.30;99.90;;;;;;5085213;28;19924;-52
2021/11/17 10:11:25;;;;;;;;;;;12.40;99.90;;;;;;5108645;28;19924;-52
2021/11/17 10:13:58;;;;;;;;;;;12.30;99.90;;;;;;5108950;28;19974;-52
2021/11/17 10:16:25;;;;;;;;;;;12.40;99.90;;;;;;5107921;28;19928;-51
2021/11/17 10:18:55;;;;;;;;;;;12.40;99.90;;;;;;5107624;28;19925;-52
2021/11/17 10:21:29;;;;;;;;;;;12.10;99.90;;;;;;5107810;28;19934;-52
2021/11/17 10:23:59;;;;;;;;;;;12.20;99.90;;;;;;5106981;28;19970;-53
2021/11/17 10:26:27;;;;;;;;;;;11.90;99.90;;;;;;5107614;28;20355;-52
2021/11/17 10:28:55;;;;;;;;;;;11.60;99.90;;;;;;5108400;28;19928;-52
2021/11/17 10:31:24;;;;;;;;;;;11.70;99.90;;;;;;5107968;28;20340;-52
2021/11/17 10:33:59;;;;;;;;;;;12.10;99.90;;;;;;5108154;28;19935;-52
2021/11/17 10:36:27;;;;;;;;;;;11.90;99.90;;;;;;5107892;28;19997;-52
2021/11/17 10:38:57;;;;;;;;;;;11.00;99.90;;;;;;5100347;28;19930;-52
2021/11/17 10:41:25;;;;;;;;;;;10.90;99.90;;;;;;5094438;28;19932;-52
2021/11/17 10:43:54;;;;;;;;;;;10.90;99.90;;;;;;5094472;28;19924;-53
2021/11/17 10:46:23;;;;;;;;;;;11.20;99.90;;;;;;5094500;28;19997;-53
2021/11/17 10:48:52;;;;;;;;;;;11.20;99.90;;;;;;5094372;28;19924;-53
2021/11/17 10:51:21;;;;;;;;;;;11.00;99.90;;;;;;5093141;28;20378;-53
2021/11/17 10:53:49;;;;;;;;;;;10.80;99.90;;;;;;5094323;28;19928;-52
2021/11/17 10:56:17;;;;;;;;;;;10.50;99.90;;;;;;5094271;28;19976;-53
2021/11/17 10:58:47;;;;;;;;;;;10.40;99.90;;;;;;5094138;28;20393;-52
2021/11/17 11:01:15;;;;;;;;;;;10.70;99.90;;;;;;5094069;28;19924;-53
2021/11/17 11:03:48;;;;;;;;;;;11.00;99.90;;;;;;5094308;28;19927;-52
2021/11/17 11:06:19;;;;;;;;;;;11.60;99.90;;;;;;5093665;28;19924;-53
2021/11/17 11:08:50;;;;;;;;;;;11.70;99.90;;;;;;5091860;28;19928;-53
2021/11/17 11:11:18;;;;;;;;;;;12.10;99.90;;;;;;5093591;28;20420;-53
2021/11/17 11:13:48;;;;;;;;;;;11.90;99.90;;;;;;5093945;28;20343;-53
2021/11/17 11:16:16;;;;;;;;;;;11.50;99.90;;;;;;5093949;28;20019;-53
2021/11/17 11:18:46;;;;;;;;;;;11.70;99.90;;;;;;5093744;28;20023;-53
2021/11/17 11:21:15;;;;;;;;;;;11.40;99.90;;;;;;5093467;28;19924;-53
2021/11/17 11:24:05;;;;;;;;;;;11.40;99.90;;;;;;5093286;28;19924;-53
2021/11/17 11:26:53;;;;;;;;;;;11.00;99.90;;;;;;5077811;28;20282;-53
2021/11/17 11:29:24;;;;;;;;;;;11.40;99.90;;;;;;5093535;28;19928;-52
2021/11/17 11:31:52;;;;;;;;;;;10.70;99.90;;;;;;5093515;28;19924;-53
2021/11/17 11:34:33;;;;;;;;;;;10.60;99.90;;;;;;5093800;28;19924;-53
2021/11/17 11:37:01;;;;;;;;;;;10.70;99.90;;;;;;5094022;28;20382;-53
2021/11/17 11:39:33;;;;;;;;;;;10.90;99.90;;;;;;5093223;28;19928;-53
2021/11/17 11:42:09;;;;;;;;;;;10.80;99.90;;;;;;5093270;28;19977;-53
2021/11/17 11:44:38;;;;;;;;;;;11.20;99.90;;;;;;5093725;28;19924;-53
2021/11/17 11:47:23;;;;;;;;;;;11.90;99.90;;;;;;5093499;28;19924;-52
2021/11/17 11:49:50;;;;;;;;;;;12.20;99.90;;;;;;5091203;28;19931;-52
2021/11/17 11:52:27;;;;;;;;;;;12.40;99.90;;;;;;5090698;28;19977;-53
2021/11/17 11:55:12;;;;;;;;;;;12.20;99.90;;;;;;5093546;28;19978;-53
2021/11/17 11:57:40;;;;;;;;;;;11.80;99.90;;;;;;5093024;28;19924;-53
2021/11/17 12:00:10;;;;;;;;;;;11.80;99.90;;;;;;5093195;28;19931;-52
2021/11/17 12:02:38;;;;;;;;;;;11.80;99.90;;;;;;5092725;28;19988;-52
2021/11/17 12:05:06;;;;;;;;;;;11.00;99.90;;;;;;5092827;28;19928;-52
2021/11/17 12:07:43;;;;;;;;;;;9.00;99.90;;;;;;5092795;28;19924;-52
2021/11/17 12:10:12;;;;;;;;;;;8.90;99.90;;;;;;5093144;28;19927;-53
2021/11/17 12:12:40;;;;;;;;;;;8.90;99.90;;;;;;5092874;28;20015;-52
2021/11/17 12:15:28;;;;;;;;;;;9.30;99.90;;;;;;5092341;28;20419;-52
2021/11/17 12:18:06;;;;;;;;;;;9.10;99.90;;;;;;5072506;28;19974;-52
2021/11/17 12:20:34;;;;;;;;;;;9.00;99.90;;;;;;5072347;28;20336;-52
2021/11/17 12:23:12;;;;;;;;;;;9.00;99.90;;;;;;5081851;28;20421;-52
2021/11/17 12:25:39;;;;;;;;;;;9.00;99.90;;;;;;5092488;28;19969;-52
2021/11/17 12:28:07;;;;;;;;;;;9.10;99.90;;;;;;5091879;28;19977;-52
2021/11/17 12:30:40;;;;;;;;;;;9.00;99.90;;;;;;5092217;28;19928;-52
2021/11/17 12:33:13;;;;;;;;;;;8.70;99.90;;;;;;5092469;28;19993;-52
2021/11/17 12:35:46;;;;;;;;;;;8.50;99.90;;;;;;5092757;28;19955;-52
2021/11/17 12:38:15;;;;;;;;;;;8.10;99.90;;;;;;5092485;28;19985;-53
2021/11/17 12:40:44;;;;;;;;;;;8.00;99.90;;;;;;5092083;28;20394;-52
2021/11/17 12:43:13;;;;;;;;;;;7.80;99.90;;;;;;5092458;28;19924;-52
2021/11/17 12:45:46;;;;;;;;;;;7.60;99.90;;;;;;5091659;28;19963;-52
2021/11/17 12:48:28;;;;;;;;;;;7.80;99.90;;;;;;5090401;28;19931;-51
2021/11/17 12:50:56;;;;;;;;;;;7.80;99.90;;;;;;5091897;28;19931;-52
2021/11/17 12:53:25;;;;;;;;;;;7.50;99.90;;;;;;5092342;28;20023;-52
2021/11/17 12:55:54;;;;;;;;;;;7.60;99.90;;;;;;5092069;28;19923;-52
2021/11/17 12:58:24;;;;;;;;;;;7.70;99.90;;;;;;5091854;28;19928;-52
2021/11/17 13:01:12;;;;;;;;;;;7.40;99.90;;;;;;5091694;28;19924;-52
2021/11/17 13:03:55;;;;;;;;;;;7.50;99.90;;;;;;5091182;28;20318;-52
2021/11/17 13:06:22;;;;;;;;;;;7.60;99.90;;;;;;5092100;28;20007;-52
2021/11/17 13:09:05;;;;;;;;;;;7.70;99.90;;;;;;5091832;28;19925;-52
2021/11/17 13:11:32;;;;;;;;;;;7.90;99.90;;;;;;5091785;28;19928;-52
2021/11/17 13:13:59;;;;;;;;;;;8.30;99.90;;;;;;5091313;28;19924;-52
2021/11/17 13:16:34;;;;;;;;;;;8.20;99.90;;;;;;5091450;28;19978;-52
2021/11/17 13:19:02;;;;;;;;;;;8.10;99.90;;;;;;5091652;28;19977;-52
2021/11/17 13:21:32;;;;;;;;;;;8.00;99.90;;;;;;5091674;28;19924;-51
2021/11/17 13:24:08;;;;;;;;;;;8.40;99.90;;;;;;5091440;28;19924;-52
2021/11/17 13:26:36;;;;;;;;;;;8.80;99.90;;;;;;5091901;28;19928;-53
2021/11/17 13:29:21;;;;;;;;;;;9.10;99.90;;;;;;5088205;28;19925;-52
2021/11/17 13:31:50;;;;;;;;;;;9.70;99.90;;;;;;5071215;28;20305;-52
2021/11/17 13:34:28;;;;;;;;;;;7.60;99.90;;;;;;5078710;28;20030;-51
2021/11/17 13:36:55;;;;;;;;;;;8.20;99.90;;;;;;5090498;28;19971;-52
2021/11/17 13:39:23;;;;;;;;;;;8.00;99.90;;;;;;5091852;28;19969;-52
2021/11/17 13:41:51;;;;;;;;;;;7.80;99.90;;;;;;5091250;28;19924;-51
2021/11/17 13:44:19;;;;;;;;;;;7.40;99.90;;;;;;5090922;28;19928;-52
2021/11/17 13:46:55;;;;;;;;;;;7.30;99.90;;;;;;5091431;28;20441;-52
2021/11/17 13:49:22;;;;;;;;;;;7.20;99.90;;;;;;5091768;28;19928;-52
2021/11/17 13:51:49;;;;;;;;;;;7.10;99.90;;;;;;5090635;28;19973;-51
2021/11/17 13:54:16;;;;;;;;;;;7.30;99.90;;;;;;5091816;28;19924;-52
2021/11/17 13:56:43;;;;;;;;;;;7.30;99.90;;;;;;5090649;28;19973;-52
2021/11/17 13:59:10;;;;;;;;;;;7.10;99.90;;;;;;5091535;28;19928;-52
2021/11/17 14:01:37;;;;;;;;;;;7.30;99.90;;;;;;5091267;28;19924;-52
2021/11/17 14:04:06;;;;;;;;;;;7.00;99.90;;;;;;5075968;28;19935;-51
2021/11/17 14:06:33;;;;;;;;;;;6.90;99.90;;;;;;5071553;28;19924;-52
2021/11/17 14:09:00;;;;;;;;;;;7.50;99.90;;;;;;5071339;28;19924;-52
2021/11/17 14:11:29;;;;;;;;;;;7.50;99.90;;;;;;5085532;28;20439;-52
2021/11/17 14:13:57;;;;;;;;;;;7.70;99.90;;;;;;5093050;28;19966;-52
2021/11/17 14:16:24;;;;;;;;;;;7.60;99.90;;;;;;5095375;28;19928;-52
2021/11/17 14:18:51;;;;;;;;;;;7.40;99.90;;;;;;5095257;28;20424;-52
2021/11/17 14:21:20;;;;;;;;;;;7.10;99.90;;;;;;5094944;28;19935;-52
2021/11/17 14:23:48;;;;;;;;;;;6.90;99.90;;;;;;5095385;28;19936;-52
2021/11/17 14:26:16;;;;;;;;;;;7.00;99.90;;;;;;5094688;28;20027;-52
2021/11/17 14:28:45;;;;;;;;;;;7.10;99.90;;;;;;5095217;28;19931;-52
2021/11/17 14:31:16;;;;;;;;;;;7.20;99.90;;;;;;5095015;28;19924;-52
2021/11/17 14:33:47;;;;;;;;;;;7.30;99.90;;;;;;5095258;28;19971;-52
2021/11/17 14:36:14;;;;;;;;;;;7.60;99.90;;;;;;5095295;28;19929;-52
2021/11/17 14:38:42;;;;;;;;;;;8.20;99.90;;;;;;5094937;28;19954;-52
2021/11/17 14:41:09;;;;;;;;;;;8.20;99.90;;;;;;5091473;28;19973;-53
2021/11/17 14:43:36;;;;;;;;;;;7.90;99.90;;;;;;5094744;28;20041;-52
2021/11/17 14:46:02;;;;;;;;;;;7.80;99.90;;;;;;5094839;28;20336;-52
2021/11/17 14:48:32;;;;;;;;;;;8.30;99.90;;;;;;5094324;28;20454;-52
2021/11/17 14:50:59;;;;;;;;;;;8.50;99.90;;;;;;5094552;28;19924;-52
2021/11/17 14:53:26;;;;;;;;;;;8.30;99.90;;;;;;5094587;28;19977;-52
2021/11/17 14:55:54;;;;;;;;;;;8.70;99.90;;;;;;5094643;28;19954;-52
2021/11/17 14:58:21;;;;;;;;;;;9.30;99.90;;;;;;5094167;28;19924;-52
2021/11/17 15:00:49;;;;;;;;;;;9.60;99.90;;;;;;5094185;28;19928;-53
2021/11/17 15:03:16;;;;;;;;;;;10.20;99.90;;;;;;5094453;28;19928;-53
2021/11/17 15:05:43;;;;;;;;;;;10.10;99.90;;;;;;5094424;28;19932;-53
2021/11/17 15:08:10;;;;;;;;;;;10.30;99.90;;;;;;5093717;28;20462;-53
2021/11/17 15:10:37;;;;;;;;;;;10.50;99.90;;;;;;5093923;28;20435;-52
2021/11/17 15:13:06;;;;;;;;;;;10.70;99.90;;;;;;5094375;28;19985;-54
2021/11/17 15:15:34;;;;;;;;;;;11.00;99.90;;;;;;5094159;28;19966;-52
2021/11/17 15:18:01;;;;;;;;;;;10.90;99.90;;;;;;5093653;28;20382;-53
2021/11/17 15:20:29;;;;;;;;;;;11.10;99.90;;;;;;5093813;28;19924;-52
2021/11/17 15:22:56;;;;;;;;;;;11.10;99.90;;;;;;5093964;28;19924;-53
2021/11/17 15:25:24;;;;;;;;;;;11.20;99.90;;;;;;5094058;28;19980;-53
2021/11/17 15:27:52;;;;;;;;;;;10.80;99.90;;;;;;5093623;28;19992;-53
2021/11/17 15:30:22;;;;;;;;;;;10.80;99.90;;;;;;5093481;28;20331;-52
2021/11/17 15:32:50;;;;;;;;;;;10.90;99.90;;;;;;5093619;28;19928;-53
2021/11/17 15:35:17;;;;;;;;;;;11.10;99.90;;;;;;5093490;28;19924;-53
2021/11/17 15:37:47;;;;;;;;;;;11.50;99.90;;;;;;5094232;28;20370;-52
2021/11/17 15:40:14;;;;;;;;;;;11.60;99.90;;;;;;5093575;28;19943;-53
2021/11/17 15:42:42;;;;;;;;;;;11.50;99.90;;;;;;5093469;28;19924;-53
2021/11/17 15:45:09;;;;;;;;;;;11.60;99.90;;;;;;5113084;22;19927;-48
2021/11/17 15:47:38;;;;;;;;;;;11.60;99.90;;;;;;5063498;28;19932;-50
2021/11/17 15:50:05;;;;;;;;;;;11.80;99.90;;;;;;5073275;28;19924;-49
2021/11/17 15:52:32;;;;;;;;;;;11.60;99.90;;;;;;5072709;28;19951;-50
2021/11/17 15:54:59;;;;;;;;;;;11.70;99.90;;;;;;5070886;28;19989;-48
2021/11/17 15:57:26;;;;;;;;;;;11.70;99.90;;;;;;5085466;28;19927;-49
2021/11/17 15:59:52;;;;;;;;;;;11.70;99.90;;;;;;5073100;28;19928;-50
2021/11/17 16:02:19;;;;;;;;;;;11.10;99.90;;;;;;5074130;28;19977;-50
2021/11/17 16:04:47;;;;;;;;;;;11.40;99.90;;;;;;5073420;28;19970;-49
2021/11/17 16:07:16;;;;;;;;;;;11.50;99.90;;;;;;5073625;28;19959;-50
2021/11/17 16:09:44;;;;;;;;;;;11.70;99.90;;;;;;5073918;28;19982;-50
2021/11/17 16:12:12;;;;;;;;;;;11.60;99.90;;;;;;5082031;28;19977;-49
2021/11/17 16:14:39;;;;;;;;;;;11.60;99.90;;;;;;5092331;28;20391;-50
2021/11/17 16:17:06;;;;;;;;;;;11.90;99.90;;;;;;5089806;28;19931;-50
2021/11/17 16:19:36;;;;;;;;;;;11.50;99.90;;;;;;5072823;28;19925;-49
2021/11/17 16:22:05;;;;;;;;;;;11.60;99.90;;;;;;5080371;28;19930;-50
2021/11/17 16:27:17;;;;;;;;;;;11.70;99.90;;;;;;5090526;28;19926;-49
2021/11/17 16:29:46;;;;;;;;;;;11.70;99.90;;;;;;5081351;28;20028;-49
2021/11/17 16:32:13;;;;;;;;;;;11.50;99.90;;;;;;5081972;28;19989;-49
2021/11/17 16:34:40;;;;;;;;;;;11.40;99.90;;;;;;5083827;28;19932;-49
2021/11/17 16:37:09;;;;;;;;;;;10.80;99.90;;;;;;5076040;28;19978;-48
2021/11/17 16:39:35;;;;;;;;;;;11.00;99.90;;;;;;5074966;28;19936;-50
2021/11/17 16:42:02;;;;;;;;;;;11.00;99.90;;;;;;5090828;28;19928;-48
2021/11/17 16:44:29;;;;;;;;;;;11.00;99.90;;;;;;5083290;28;20406;-48
2021/11/17 16:48:01;;;;;;;;;;;10.70;99.90;;;;;;5117777;27;19939;-48
2021/11/17 16:50:28;;;;;;;;;;;10.80;99.90;;;;;;5110212;28;20351;-47
2021/11/17 16:52:55;;;;;;;;;;;10.40;99.90;;;;;;5107942;28;19924;-48
2021/11/17 16:55:23;;;;;;;;;;;10.20;99.90;;;;;;5108722;28;19978;-48
2021/11/17 16:57:50;;;;;;;;;;;9.80;99.90;;;;;;5092116;28;19928;-49
2021/11/17 17:00:18;;;;;;;;;;;9.50;99.90;;;;;;5089009;28;20436;-47
2021/11/17 17:02:45;;;;;;;;;;;9.30;99.90;;;;;;5101146;28;20283;-48
2021/11/17 17:05:14;;;;;;;;;;;8.80;99.90;;;;;;5112741;28;19924;-48
2021/11/17 17:07:44;;;;;;;;;;;8.50;99.90;;;;;;5108379;28;19923;-48
2021/11/17 17:10:12;;;;;;;;;;;8.40;99.90;;;;;;5109171;28;20363;-48
2021/11/17 17:12:38;;;;;;;;;;;8.10;99.90;;;;;;5109215;28;19977;-47
2021/11/17 17:15:06;;;;;;;;;;;7.90;99.90;;;;;;5089355;28;19978;-47
2021/11/17 17:17:34;;;;;;;;;;;7.60;99.90;;;;;;5101168;28;19924;-47
2021/11/17 17:20:01;;;;;;;;;;;7.30;99.90;;;;;;5108679;28;19924;-47
2021/11/17 17:22:33;;;;;;;;;;;7.50;99.90;;;;;;5107759;28;19932;-47
2021/11/17 17:25:01;;;;;;;;;;;7.40;99.90;;;;;;5111015;28;19924;-48
2021/11/17 17:27:28;;;;;;;;;;;7.40;99.90;;;;;;5109174;27;19924;-48